sensor_id;sensor_type;location;lat;lon;timestamp;temperature;humidity
13652;DHT22;6899;51.546;6.912;2023-02-03T00:01:24;7.90;99.90
13652;DHT22;6899;51.546;6.912;2023-02-03T00:03:51;7.90;99.90
13652;DHT22;6899;51.546;6.912;2023-02-03T00:06:18;7.90;99.90
13652;DHT22;6899;51.546;6.912;2023-02-03T00:08:45;7.90;99.90
13652;DHT22;6899;51.546;6.912;2023-02-03T00:11:12;7.90;99.90
13652;DHT22;6899;51.546;6.912;2023-02-03T00:13:40;7.90;99.90
13652;DHT22;6899;51.546;6.912;2023-02-03T00:16:07;7.90;99.90
13652;DHT22;6899;51.546;6.912;2023-02-03T00:18:34;7.90;99.90
13652;DHT22;6899;51.546;6.912;2023-02-03T00:21:01;7.90;99.90
13652;DHT22;6899;51.546;6.912;2023-02-03T00:23:30;7.90;99.90
13652;DHT22;6899;51.546;6.912;2023-02-03T00:25:59;7.90;99.90
13652;DHT22;6899;51.546;6.912;2023-02-03T00:28:31;7.90;99.90
13652;DHT22;6899;51.546;6.912;2023-02-03T00:31:00;7.90;99.90
13652;DHT22;6899;51.546;6.912;2023-02-03T00:33:27;7.90;99.90
13652;DHT22;6899;51.546;6.912;2023-02-03T00:35:54;7.90;99.90
13652;DHT22;6899;51.546;6.912;2023-02-03T00:38:20;7.90;99.90
13652;DHT22;6899;51.546;6.912;2023-02-03T00:40:51;7.90;99.90
13652;DHT22;6899;51.546;6.912;2023-02-03T00:43:18;7.90;99.90
13652;DHT22;6899;51.546;6.912;2023-02-03T00:45:45;8.00;99.90
13652;DHT22;6899;51.546;6.912;2023-02-03T00:48:13;8.00;99.90
13652;DHT22;6899;51.546;6.912;2023-02-03T00:50:40;8.00;99.90
13652;DHT22;6899;51.546;6.912;2023-02-03T00:53:07;8.00;99.90
13652;DHT22;6899;51.546;6.912;2023-02-03T00:55:34;8.00;99.90
13652;DHT22;6899;51.546;6.912;2023-02-03T00:58:01;8.00;99.90
13652;DHT22;6899;51.546;6.912;2023-02-03T01:00:28;8.00;99.90
13652;DHT22;6899;51.546;6.912;2023-02-03T01:02:54;8.00;99.90
13652;DHT22;6899;51.546;6.912;2023-02-03T01:05:23;8.00;99.90
13652;DHT22;6899;51.546;6.912;2023-02-03T01:07:50;8.00;99.90
13652;DHT22;6899;51.546;6.912;2023-02-03T01:10:17;8.00;99.90
13652;DHT22;6899;51.546;6.912;2023-02-03T01:12:43;8.00;99.90
13652;DHT22;6899;51.546;6.912;2023-02-03T01:15:10;8.00;99.90
13652;DHT22;6899;51.546;6.912;2023-02-03T01:17:43;8.00;99.90
13652;DHT22;6899;51.546;6.912;2023-02-03T01:20:11;8.00;99.90
13652;DHT22;6899;51.546;6.912;2023-02-03T01:22:39;8.00;99.90
13652;DHT22;6899;51.546;6.912;2023-02-03T01:25:07;8.00;99.90
13652;DHT22;6899;51.546;6.912;2023-02-03T01:27:34;8.00;99.90
13652;DHT22;6899;51.546;6.912;2023-02-03T01:30:01;8.00;99.90
13652;DHT22;6899;51.546;6.912;2023-02-03T01:32:28;8.00;99.90
13652;DHT22;6899;51.546;6.912;2023-02-03T01:34:55;8.00;99.90
13652;DHT22;6899;51.546;6.912;2023-02-03T01:37:21;8.00;99.90
13652;DHT22;6899;51.546;6.912;2023-02-03T01:39:53;8.00;99.90
13652;DHT22;6899;51.546;6.912;2023-02-03T01:42:20;8.00;99.90
13652;DHT22;6899;51.546;6.912;2023-02-03T01:44:48;8.00;99.90
13652;DHT22;6899;51.546;6.912;2023-02-03T01:47:27;8.00;99.90
13652;DHT22;6899;51.546;6.912;2023-02-03T01:50:09;8.00;99.90
13652;DHT22;6899;51.546;6.912;2023-02-03T01:52:41;8.00;99.90
13652;DHT22;6899;51.546;6.912;2023-02-03T01:55:18;8.00;99.90
13652;DHT22;6899;51.546;6.912;2023-02-03T01:57:57;8.00;99.90
13652;DHT22;6899;51.546;6.912;2023-02-03T02:00:25;8.10;99.90
13652;DHT22;6899;51.546;6.912;2023-02-03T02:02:52;8.00;99.90
13652;DHT22;6899;51.546;6.912;2023-02-03T02:05:24;8.00;99.90
13652;DHT22;6899;51.546;6.912;2023-02-03T02:07:54;8.00;99.90
13652;DHT22;6899;51.546;6.912;2023-02-03T02:10:24;8.00;99.90
13652;DHT22;6899;51.546;6.912;2023-02-03T02:12:51;8.10;99.90
13652;DHT22;6899;51.546;6.912;2023-02-03T02:15:22;8.10;99.90
13652;DHT22;6899;51.546;6.912;2023-02-03T02:21:07;8.10;99.90
13652;DHT22;6899;51.546;6.912;2023-02-03T02:24:18;8.00;99.90
13652;DHT22;6899;51.546;6.912;2023-02-03T02:26:59;8.10;99.90
13652;DHT22;6899;51.546;6.912;2023-02-03T02:30:04;8.00;99.90
13652;DHT22;6899;51.546;6.912;2023-02-03T02:32:55;8.10;99.90
13652;DHT22;6899;51.546;6.912;2023-02-03T02:35:36;8.10;99.90
13652;DHT22;6899;51.546;6.912;2023-02-03T02:38:14;8.10;99.90
13652;DHT22;6899;51.546;6.912;2023-02-03T02:40:50;8.10;99.90
13652;DHT22;6899;51.546;6.912;2023-02-03T02:43:27;8.10;99.90
13652;DHT22;6899;51.546;6.912;2023-02-03T02:45:58;8.10;99.90
13652;DHT22;6899;51.546;6.912;2023-02-03T02:48:34;8.10;99.90
13652;DHT22;6899;51.546;6.912;2023-02-03T02:51:06;8.10;99.90
13652;DHT22;6899;51.546;6.912;2023-02-03T02:53:36;8.10;99.90
13652;DHT22;6899;51.546;6.912;2023-02-03T02:56:12;8.10;99.90
13652;DHT22;6899;51.546;6.912;2023-02-03T02:58:43;8.10;99.90
13652;DHT22;6899;51.546;6.912;2023-02-03T03:01:12;8.10;99.90
13652;DHT22;6899;51.546;6.912;2023-02-03T03:03:44;8.10;99.90
13652;DHT22;6899;51.546;6.912;2023-02-03T03:06:15;8.10;99.90
13652;DHT22;6899;51.546;6.912;2023-02-03T03:08:47;8.10;99.90
13652;DHT22;6899;51.546;6.912;2023-02-03T03:11:16;8.10;99.90
13652;DHT22;6899;51.546;6.912;2023-02-03T03:13:53;8.10;99.90
13652;DHT22;6899;51.546;6.912;2023-02-03T03:16:24;8.10;99.90
13652;DHT22;6899;51.546;6.912;2023-02-03T03:18:55;8.10;99.90
13652;DHT22;6899;51.546;6.912;2023-02-03T03:21:26;8.10;99.90
13652;DHT22;6899;51.546;6.912;2023-02-03T03:23:58;8.10;99.90
13652;DHT22;6899;51.546;6.912;2023-02-03T03:26:30;8.10;99.90
13652;DHT22;6899;51.546;6.912;2023-02-03T03:29:05;8.10;99.90
13652;DHT22;6899;51.546;6.912;2023-02-03T03:31:33;8.10;99.90
13652;DHT22;6899;51.546;6.912;2023-02-03T03:34:01;8.10;99.90
13652;DHT22;6899;51.546;6.912;2023-02-03T03:36:32;8.10;99.90
13652;DHT22;6899;51.546;6.912;2023-02-03T03:39:08;8.10;99.90
13652;DHT22;6899;51.546;6.912;2023-02-03T03:41:42;8.10;99.90
13652;DHT22;6899;51.546;6.912;2023-02-03T03:44:14;8.10;99.90
13652;DHT22;6899;51.546;6.912;2023-02-03T03:46:45;8.20;99.90
13652;DHT22;6899;51.546;6.912;2023-02-03T03:49:18;8.10;99.90
13652;DHT22;6899;51.546;6.912;2023-02-03T03:51:47;8.20;99.90
13652;DHT22;6899;51.546;6.912;2023-02-03T03:54:19;8.20;99.90
13652;DHT22;6899;51.546;6.912;2023-02-03T03:56:50;8.10;99.90
13652;DHT22;6899;51.546;6.912;2023-02-03T03:59:23;8.20;99.90
13652;DHT22;6899;51.546;6.912;2023-02-03T04:01:51;8.20;99.90
13652;DHT22;6899;51.546;6.912;2023-02-03T04:04:20;8.20;99.90
13652;DHT22;6899;51.546;6.912;2023-02-03T04:06:48;8.20;99.90
13652;DHT22;6899;51.546;6.912;2023-02-03T04:09:15;8.20;99.90
13652;DHT22;6899;51.546;6.912;2023-02-03T04:11:42;8.20;99.90
13652;DHT22;6899;51.546;6.912;2023-02-03T04:14:28;8.20;99.90
13652;DHT22;6899;51.546;6.912;2023-02-03T04:16:55;8.20;99.90
13652;DHT22;6899;51.546;6.912;2023-02-03T04:19:24;8.20;99.90
13652;DHT22;6899;51.546;6.912;2023-02-03T04:21:51;8.20;99.90
13652;DHT22;6899;51.546;6.912;2023-02-03T04:24:18;8.30;99.90
13652;DHT22;6899;51.546;6.912;2023-02-03T04:26:45;8.30;99.90
13652;DHT22;6899;51.546;6.912;2023-02-03T04:29:12;8.30;99.90
13652;DHT22;6899;51.546;6.912;2023-02-03T04:31:39;8.20;99.90
13652;DHT22;6899;51.546;6.912;2023-02-03T04:34:06;8.20;99.90
13652;DHT22;6899;51.546;6.912;2023-02-03T04:36:40;8.20;99.90
13652;DHT22;6899;51.546;6.912;2023-02-03T04:39:07;8.20;99.90
13652;DHT22;6899;51.546;6.912;2023-02-03T04:41:43;8.30;99.90
13652;DHT22;6899;51.546;6.912;2023-02-03T04:44:22;8.30;99.90
13652;DHT22;6899;51.546;6.912;2023-02-03T04:46:49;8.20;99.90
13652;DHT22;6899;51.546;6.912;2023-02-03T04:49:16;8.20;99.90
13652;DHT22;6899;51.546;6.912;2023-02-03T04:51:44;8.20;99.90
13652;DHT22;6899;51.546;6.912;2023-02-03T04:54:13;8.20;99.90
13652;DHT22;6899;51.546;6.912;2023-02-03T04:56:43;8.20;99.90
13652;DHT22;6899;51.546;6.912;2023-02-03T04:59:10;8.20;99.90
13652;DHT22;6899;51.546;6.912;2023-02-03T05:01:37;8.20;99.90
13652;DHT22;6899;51.546;6.912;2023-02-03T05:04:04;8.20;99.90
13652;DHT22;6899;51.546;6.912;2023-02-03T05:06:31;8.20;99.90
13652;DHT22;6899;51.546;6.912;2023-02-03T05:09:00;8.20;99.90
13652;DHT22;6899;51.546;6.912;2023-02-03T05:11:27;8.20;99.90
13652;DHT22;6899;51.546;6.912;2023-02-03T05:13:54;8.20;99.90
13652;DHT22;6899;51.546;6.912;2023-02-03T05:16:28;8.20;99.90
13652;DHT22;6899;51.546;6.912;2023-02-03T05:18:55;8.20;99.90
13652;DHT22;6899;51.546;6.912;2023-02-03T05:21:21;8.20;99.90
13652;DHT22;6899;51.546;6.912;2023-02-03T05:23:48;8.30;99.90
13652;DHT22;6899;51.546;6.912;2023-02-03T05:26:17;8.30;99.90
13652;DHT22;6899;51.546;6.912;2023-02-03T05:28:44;8.30;99.90
13652;DHT22;6899;51.546;6.912;2023-02-03T05:31:10;8.30;99.90
13652;DHT22;6899;51.546;6.912;2023-02-03T05:33:37;8.30;99.90
13652;DHT22;6899;51.546;6.912;2023-02-03T05:36:05;8.30;99.90
13652;DHT22;6899;51.546;6.912;2023-02-03T05:38:32;8.30;99.90
13652;DHT22;6899;51.546;6.912;2023-02-03T05:40:58;8.30;99.90
13652;DHT22;6899;51.546;6.912;2023-02-03T05:43:44;8.30;99.90
13652;DHT22;6899;51.546;6.912;2023-02-03T05:46:11;8.30;99.90
13652;DHT22;6899;51.546;6.912;2023-02-03T05:48:38;8.30;99.90
13652;DHT22;6899;51.546;6.912;2023-02-03T05:51:05;8.30;99.90
13652;DHT22;6899;51.546;6.912;2023-02-03T05:53:32;8.30;99.90
13652;DHT22;6899;51.546;6.912;2023-02-03T05:55:58;8.30;99.90
13652;DHT22;6899;51.546;6.912;2023-02-03T05:58:25;8.30;99.90
13652;DHT22;6899;51.546;6.912;2023-02-03T06:00:53;8.30;99.90
13652;DHT22;6899;51.546;6.912;2023-02-03T06:03:24;8.40;99.90
13652;DHT22;6899;51.546;6.912;2023-02-03T06:05:51;8.40;99.90
13652;DHT22;6899;51.546;6.912;2023-02-03T06:08:17;8.40;99.90
13652;DHT22;6899;51.546;6.912;2023-02-03T06:10:44;8.30;99.90
13652;DHT22;6899;51.546;6.912;2023-02-03T06:13:13;8.40;99.90
13652;DHT22;6899;51.546;6.912;2023-02-03T06:15:40;8.40;99.90
13652;DHT22;6899;51.546;6.912;2023-02-03T06:18:11;8.40;99.90
13652;DHT22;6899;51.546;6.912;2023-02-03T06:20:37;8.40;99.90
13652;DHT22;6899;51.546;6.912;2023-02-03T06:23:04;8.40;99.90
13652;DHT22;6899;51.546;6.912;2023-02-03T06:25:31;8.40;99.90
13652;DHT22;6899;51.546;6.912;2023-02-03T06:27:58;8.40;99.90
13652;DHT22;6899;51.546;6.912;2023-02-03T06:30:25;8.40;99.90
13652;DHT22;6899;51.546;6.912;2023-02-03T06:32:53;8.40;99.90
13652;DHT22;6899;51.546;6.912;2023-02-03T06:35:22;8.40;99.90
13652;DHT22;6899;51.546;6.912;2023-02-03T06:38:07;8.40;99.90
13652;DHT22;6899;51.546;6.912;2023-02-03T06:40:33;8.40;99.90
13652;DHT22;6899;51.546;6.912;2023-02-03T06:43:00;8.40;99.90
13652;DHT22;6899;51.546;6.912;2023-02-03T06:45:27;8.40;99.90
13652;DHT22;6899;51.546;6.912;2023-02-03T06:47:54;8.40;99.90
13652;DHT22;6899;51.546;6.912;2023-02-03T06:50:22;8.40;99.90
13652;DHT22;6899;51.546;6.912;2023-02-03T06:52:49;8.40;99.90
13652;DHT22;6899;51.546;6.912;2023-02-03T06:55:16;8.40;99.90
13652;DHT22;6899;51.546;6.912;2023-02-03T06:57:44;8.40;99.90
13652;DHT22;6899;51.546;6.912;2023-02-03T07:00:13;8.40;99.90
13652;DHT22;6899;51.546;6.912;2023-02-03T07:02:40;8.40;99.90
13652;DHT22;6899;51.546;6.912;2023-02-03T07:05:07;8.40;99.90
13652;DHT22;6899;51.546;6.912;2023-02-03T07:07:36;8.40;99.90
13652;DHT22;6899;51.546;6.912;2023-02-03T07:10:04;8.40;99.90
13652;DHT22;6899;51.546;6.912;2023-02-03T07:12:31;8.40;99.90
13652;DHT22;6899;51.546;6.912;2023-02-03T07:14:58;8.40;99.90
13652;DHT22;6899;51.546;6.912;2023-02-03T07:17:25;8.40;99.90
13652;DHT22;6899;51.546;6.912;2023-02-03T07:19:52;8.40;99.90
13652;DHT22;6899;51.546;6.912;2023-02-03T07:22:18;8.40;99.90
13652;DHT22;6899;51.546;6.912;2023-02-03T07:24:50;8.40;99.90
13652;DHT22;6899;51.546;6.912;2023-02-03T07:27:16;8.50;99.90
13652;DHT22;6899;51.546;6.912;2023-02-03T07:29:44;8.50;99.90
13652;DHT22;6899;51.546;6.912;2023-02-03T07:32:11;8.50;99.90
13652;DHT22;6899;51.546;6.912;2023-02-03T07:34:38;8.50;99.90
13652;DHT22;6899;51.546;6.912;2023-02-03T07:37:05;8.50;99.90
13652;DHT22;6899;51.546;6.912;2023-02-03T07:39:32;8.50;99.90
13652;DHT22;6899;51.546;6.912;2023-02-03T07:42:00;8.50;99.90
13652;DHT22;6899;51.546;6.912;2023-02-03T07:44:27;8.50;99.90
13652;DHT22;6899;51.546;6.912;2023-02-03T07:46:54;8.50;99.90
13652;DHT22;6899;51.546;6.912;2023-02-03T07:49:20;8.50;99.90
13652;DHT22;6899;51.546;6.912;2023-02-03T07:51:47;8.60;99.90
13652;DHT22;6899;51.546;6.912;2023-02-03T07:54:14;8.50;99.90
13652;DHT22;6899;51.546;6.912;2023-02-03T07:56:41;8.50;99.90
13652;DHT22;6899;51.546;6.912;2023-02-03T07:59:10;8.50;99.90
13652;DHT22;6899;51.546;6.912;2023-02-03T08:01:36;8.50;99.90
13652;DHT22;6899;51.546;6.912;2023-02-03T08:04:03;8.50;99.90
13652;DHT22;6899;51.546;6.912;2023-02-03T08:06:30;8.50;99.90
13652;DHT22;6899;51.546;6.912;2023-02-03T08:08:57;8.50;99.90
13652;DHT22;6899;51.546;6.912;2023-02-03T08:11:24;8.50;99.90
13652;DHT22;6899;51.546;6.912;2023-02-03T08:13:51;8.60;99.90
13652;DHT22;6899;51.546;6.912;2023-02-03T08:16:19;8.60;99.90
13652;DHT22;6899;51.546;6.912;2023-02-03T08:18:46;8.60;99.90
13652;DHT22;6899;51.546;6.912;2023-02-03T08:21:13;8.70;99.90
13652;DHT22;6899;51.546;6.912;2023-02-03T08:23:40;8.70;99.90
13652;DHT22;6899;51.546;6.912;2023-02-03T08:26:07;8.70;99.90
13652;DHT22;6899;51.546;6.912;2023-02-03T08:28:33;8.70;99.90
13652;DHT22;6899;51.546;6.912;2023-02-03T08:31:00;8.70;99.90
13652;DHT22;6899;51.546;6.912;2023-02-03T08:33:28;8.70;99.90
13652;DHT22;6899;51.546;6.912;2023-02-03T08:35:55;8.70;99.90
13652;DHT22;6899;51.546;6.912;2023-02-03T08:38:23;8.80;99.90
13652;DHT22;6899;51.546;6.912;2023-02-03T08:40:50;8.80;99.90
13652;DHT22;6899;51.546;6.912;2023-02-03T08:43:25;8.80;99.90
13652;DHT22;6899;51.546;6.912;2023-02-03T08:45:52;8.80;99.90
13652;DHT22;6899;51.546;6.912;2023-02-03T08:48:19;8.90;99.90
13652;DHT22;6899;51.546;6.912;2023-02-03T08:50:47;8.90;99.90
13652;DHT22;6899;51.546;6.912;2023-02-03T08:53:20;8.90;99.90
13652;DHT22;6899;51.546;6.912;2023-02-03T08:55:46;8.90;99.90
13652;DHT22;6899;51.546;6.912;2023-02-03T08:58:13;8.90;99.90
13652;DHT22;6899;51.546;6.912;2023-02-03T09:00:40;9.00;99.90
13652;DHT22;6899;51.546;6.912;2023-02-03T09:03:07;9.00;99.90
13652;DHT22;6899;51.546;6.912;2023-02-03T09:05:34;9.00;99.90
13652;DHT22;6899;51.546;6.912;2023-02-03T09:08:03;9.10;99.90
13652;DHT22;6899;51.546;6.912;2023-02-03T09:10:30;9.10;99.90
13652;DHT22;6899;51.546;6.912;2023-02-03T09:12:57;9.10;99.90
13652;DHT22;6899;51.546;6.912;2023-02-03T09:15:24;9.10;99.90
13652;DHT22;6899;51.546;6.912;2023-02-03T09:17:51;9.20;99.90
13652;DHT22;6899;51.546;6.912;2023-02-03T09:20:19;9.10;99.90
13652;DHT22;6899;51.546;6.912;2023-02-03T09:22:48;9.10;99.90
13652;DHT22;6899;51.546;6.912;2023-02-03T09:25:16;9.20;99.90
13652;DHT22;6899;51.546;6.912;2023-02-03T09:27:43;9.20;99.90
13652;DHT22;6899;51.546;6.912;2023-02-03T09:35:20;9.20;99.90
13652;DHT22;6899;51.546;6.912;2023-02-03T09:37:48;9.30;99.90
13652;DHT22;6899;51.546;6.912;2023-02-03T09:40:21;9.30;99.90
13652;DHT22;6899;51.546;6.912;2023-02-03T09:42:58;9.30;99.90
13652;DHT22;6899;51.546;6.912;2023-02-03T09:45:30;9.30;99.90
13652;DHT22;6899;51.546;6.912;2023-02-03T09:47:59;9.40;99.90
13652;DHT22;6899;51.546;6.912;2023-02-03T09:50:32;9.30;99.90
13652;DHT22;6899;51.546;6.912;2023-02-03T09:53:09;9.30;99.90
13652;DHT22;6899;51.546;6.912;2023-02-03T09:55:41;9.30;99.90
13652;DHT22;6899;51.546;6.912;2023-02-03T09:58:10;9.40;99.90
13652;DHT22;6899;51.546;6.912;2023-02-03T10:00:41;9.40;99.90
13652;DHT22;6899;51.546;6.912;2023-02-03T10:03:16;9.50;99.90
13652;DHT22;6899;51.546;6.912;2023-02-03T10:06:09;9.60;99.90
13652;DHT22;6899;51.546;6.912;2023-02-03T10:08:49;9.60;99.90
13652;DHT22;6899;51.546;6.912;2023-02-03T10:11:40;9.60;99.90
13652;DHT22;6899;51.546;6.912;2023-02-03T10:14:23;9.70;99.90
13652;DHT22;6899;51.546;6.912;2023-02-03T10:17:06;9.70;99.90
13652;DHT22;6899;51.546;6.912;2023-02-03T10:19:42;9.70;99.90
13652;DHT22;6899;51.546;6.912;2023-02-03T10:22:14;9.60;99.90
13652;DHT22;6899;51.546;6.912;2023-02-03T10:24:46;9.60;99.90
13652;DHT22;6899;51.546;6.912;2023-02-03T10:27:17;9.40;99.90
13652;DHT22;6899;51.546;6.912;2023-02-03T10:29:50;9.50;99.90
13652;DHT22;6899;51.546;6.912;2023-02-03T10:32:23;9.50;99.90
13652;DHT22;6899;51.546;6.912;2023-02-03T10:34:51;9.40;99.90
13652;DHT22;6899;51.546;6.912;2023-02-03T10:37:25;9.50;99.90
13652;DHT22;6899;51.546;6.912;2023-02-03T10:39:53;9.50;99.90
13652;DHT22;6899;51.546;6.912;2023-02-03T10:42:22;9.50;99.90
13652;DHT22;6899;51.546;6.912;2023-02-03T10:44:52;9.60;99.90
13652;DHT22;6899;51.546;6.912;2023-02-03T10:47:29;9.50;99.90
13652;DHT22;6899;51.546;6.912;2023-02-03T10:50:03;9.60;99.90
13652;DHT22;6899;51.546;6.912;2023-02-03T10:52:33;9.60;99.90
13652;DHT22;6899;51.546;6.912;2023-02-03T10:55:04;9.60;99.90
13652;DHT22;6899;51.546;6.912;2023-02-03T10:57:34;9.50;99.90
13652;DHT22;6899;51.546;6.912;2023-02-03T11:00:18;9.60;99.90
13652;DHT22;6899;51.546;6.912;2023-02-03T11:02:54;9.60;99.90
13652;DHT22;6899;51.546;6.912;2023-02-03T11:05:24;9.60;99.90
13652;DHT22;6899;51.546;6.912;2023-02-03T11:07:51;9.60;99.90
13652;DHT22;6899;51.546;6.912;2023-02-03T11:10:29;9.60;99.90
13652;DHT22;6899;51.546;6.912;2023-02-03T11:13:17;9.70;99.90
13652;DHT22;6899;51.546;6.912;2023-02-03T11:15:51;9.70;99.90
13652;DHT22;6899;51.546;6.912;2023-02-03T11:21:22;9.60;99.90
13652;DHT22;6899;51.546;6.912;2023-02-03T11:23:56;9.60;99.90
13652;DHT22;6899;51.546;6.912;2023-02-03T11:26:27;9.60;99.90
13652;DHT22;6899;51.546;6.912;2023-02-03T11:29:01;9.70;99.90
13652;DHT22;6899;51.546;6.912;2023-02-03T11:31:32;9.70;99.90
13652;DHT22;6899;51.546;6.912;2023-02-03T11:34:02;9.70;99.90
13652;DHT22;6899;51.546;6.912;2023-02-03T11:36:31;9.70;99.90
13652;DHT22;6899;51.546;6.912;2023-02-03T11:39:20;9.60;99.90
13652;DHT22;6899;51.546;6.912;2023-02-03T11:42:00;9.70;99.90
13652;DHT22;6899;51.546;6.912;2023-02-03T11:44:29;9.80;99.90
13652;DHT22;6899;51.546;6.912;2023-02-03T11:47:00;9.80;99.90
13652;DHT22;6899;51.546;6.912;2023-02-03T11:50:06;9.80;99.90
13652;DHT22;6899;51.546;6.912;2023-02-03T11:52:47;9.70;99.90
13652;DHT22;6899;51.546;6.912;2023-02-03T11:55:25;9.80;99.90
13652;DHT22;6899;51.546;6.912;2023-02-03T11:58:14;9.90;99.90
13652;DHT22;6899;51.546;6.912;2023-02-03T12:00:49;9.80;99.90
13652;DHT22;6899;51.546;6.912;2023-02-03T12:03:43;9.80;99.90
13652;DHT22;6899;51.546;6.912;2023-02-03T12:06:31;9.70;99.90
13652;DHT22;6899;51.546;6.912;2023-02-03T12:09:11;9.80;99.90
13652;DHT22;6899;51.546;6.912;2023-02-03T12:12:02;9.70;99.90
13652;DHT22;6899;51.546;6.912;2023-02-03T12:14:48;9.70;99.90
13652;DHT22;6899;51.546;6.912;2023-02-03T12:17:28;9.60;99.90
13652;DHT22;6899;51.546;6.912;2023-02-03T12:20:05;9.50;99.90
13652;DHT22;6899;51.546;6.912;2023-02-03T12:22:42;9.60;99.90
13652;DHT22;6899;51.546;6.912;2023-02-03T12:25:32;9.50;99.90
13652;DHT22;6899;51.546;6.912;2023-02-03T12:28:08;9.60;99.90
13652;DHT22;6899;51.546;6.912;2023-02-03T12:30:43;9.60;99.90
13652;DHT22;6899;51.546;6.912;2023-02-03T12:33:17;9.70;99.90
13652;DHT22;6899;51.546;6.912;2023-02-03T12:35:50;9.80;99.90
13652;DHT22;6899;51.546;6.912;2023-02-03T12:38:25;9.90;99.90
13652;DHT22;6899;51.546;6.912;2023-02-03T12:40:57;9.90;99.90
13652;DHT22;6899;51.546;6.912;2023-02-03T12:43:29;10.00;99.90
13652;DHT22;6899;51.546;6.912;2023-02-03T12:46:01;10.10;99.90
13652;DHT22;6899;51.546;6.912;2023-02-03T12:48:41;10.10;99.90
13652;DHT22;6899;51.546;6.912;2023-02-03T12:51:14;10.00;99.90
13652;DHT22;6899;51.546;6.912;2023-02-03T12:53:47;10.00;99.90
13652;DHT22;6899;51.546;6.912;2023-02-03T12:56:22;10.20;99.90
13652;DHT22;6899;51.546;6.912;2023-02-03T12:58:55;10.20;99.90
13652;DHT22;6899;51.546;6.912;2023-02-03T13:01:25;10.30;99.90
13652;DHT22;6899;51.546;6.912;2023-02-03T13:04:00;10.30;99.90
13652;DHT22;6899;51.546;6.912;2023-02-03T13:06:40;10.30;99.90
13652;DHT22;6899;51.546;6.912;2023-02-03T13:09:22;10.40;99.90
13652;DHT22;6899;51.546;6.912;2023-02-03T13:11:57;10.40;99.90
13652;DHT22;6899;51.546;6.912;2023-02-03T13:14:30;10.30;99.90
13652;DHT22;6899;51.546;6.912;2023-02-03T13:17:05;10.30;99.90
13652;DHT22;6899;51.546;6.912;2023-02-03T13:19:40;10.30;99.90
13652;DHT22;6899;51.546;6.912;2023-02-03T13:22:13;10.30;99.90
13652;DHT22;6899;51.546;6.912;2023-02-03T13:24:45;10.30;99.90
13652;DHT22;6899;51.546;6.912;2023-02-03T13:27:35;10.30;99.90
13652;DHT22;6899;51.546;6.912;2023-02-03T13:30:23;10.20;99.90
13652;DHT22;6899;51.546;6.912;2023-02-03T13:33:07;10.30;99.90
13652;DHT22;6899;51.546;6.912;2023-02-03T13:35:51;10.30;99.90
13652;DHT22;6899;51.546;6.912;2023-02-03T13:38:40;10.40;99.90
13652;DHT22;6899;51.546;6.912;2023-02-03T13:41:19;10.30;99.90
13652;DHT22;6899;51.546;6.912;2023-02-03T13:43:50;10.00;99.90
13652;DHT22;6899;51.546;6.912;2023-02-03T13:46:21;9.80;99.90
13652;DHT22;6899;51.546;6.912;2023-02-03T13:48:51;9.70;99.90
13652;DHT22;6899;51.546;6.912;2023-02-03T13:51:25;9.60;99.90
13652;DHT22;6899;51.546;6.912;2023-02-03T13:54:03;9.50;99.90
13652;DHT22;6899;51.546;6.912;2023-02-03T13:56:44;9.40;99.90
13652;DHT22;6899;51.546;6.912;2023-02-03T13:59:40;9.40;99.90
13652;DHT22;6899;51.546;6.912;2023-02-03T14:05:38;8.60;99.90
13652;DHT22;6899;51.546;6.912;2023-02-03T14:11:40;8.10;99.90
13652;DHT22;6899;51.546;6.912;2023-02-03T14:14:42;8.10;99.90
13652;DHT22;6899;51.546;6.912;2023-02-03T14:20:46;8.10;99.90
13652;DHT22;6899;51.546;6.912;2023-02-03T14:23:28;8.10;99.90
13652;DHT22;6899;51.546;6.912;2023-02-03T14:26:00;8.10;99.90
13652;DHT22;6899;51.546;6.912;2023-02-03T14:28:37;8.10;99.90
13652;DHT22;6899;51.546;6.912;2023-02-03T14:31:12;8.10;99.90
13652;DHT22;6899;51.546;6.912;2023-02-03T14:33:53;8.10;99.90
13652;DHT22;6899;51.546;6.912;2023-02-03T14:36:35;8.10;99.90
13652;DHT22;6899;51.546;6.912;2023-02-03T14:39:40;8.10;99.90
13652;DHT22;6899;51.546;6.912;2023-02-03T14:42:20;8.10;99.90
13652;DHT22;6899;51.546;6.912;2023-02-03T14:45:02;8.10;99.90
13652;DHT22;6899;51.546;6.912;2023-02-03T14:47:45;8.10;99.90
13652;DHT22;6899;51.546;6.912;2023-02-03T14:50:25;8.10;99.90
13652;DHT22;6899;51.546;6.912;2023-02-03T14:56:00;8.00;99.90
13652;DHT22;6899;51.546;6.912;2023-02-03T14:58:35;8.00;99.90
13652;DHT22;6899;51.546;6.912;2023-02-03T15:01:22;8.00;99.90
13652;DHT22;6899;51.546;6.912;2023-02-03T15:04:19;8.00;99.90
13652;DHT22;6899;51.546;6.912;2023-02-03T15:06:48;8.00;99.90
13652;DHT22;6899;51.546;6.912;2023-02-03T15:09:23;8.00;99.90
13652;DHT22;6899;51.546;6.912;2023-02-03T15:12:01;8.00;99.90
13652;DHT22;6899;51.546;6.912;2023-02-03T15:14:32;7.90;99.90
13652;DHT22;6899;51.546;6.912;2023-02-03T15:17:02;7.90;99.90
13652;DHT22;6899;51.546;6.912;2023-02-03T15:19:43;8.00;99.90
13652;DHT22;6899;51.546;6.912;2023-02-03T15:22:20;8.00;99.90
13652;DHT22;6899;51.546;6.912;2023-02-03T15:24:49;8.00;99.90
13652;DHT22;6899;51.546;6.912;2023-02-03T15:27:26;8.00;99.90
13652;DHT22;6899;51.546;6.912;2023-02-03T15:33:06;8.00;99.90
13652;DHT22;6899;51.546;6.912;2023-02-03T15:35:34;8.00;99.90
13652;DHT22;6899;51.546;6.912;2023-02-03T15:38:06;7.90;99.90
13652;DHT22;6899;51.546;6.912;2023-02-03T15:40:42;7.90;99.90
13652;DHT22;6899;51.546;6.912;2023-02-03T15:43:32;7.80;99.90
13652;DHT22;6899;51.546;6.912;2023-02-03T15:46:13;7.90;99.90
13652;DHT22;6899;51.546;6.912;2023-02-03T15:48:58;7.90;99.90
13652;DHT22;6899;51.546;6.912;2023-02-03T15:51:36;7.90;99.90
13652;DHT22;6899;51.546;6.912;2023-02-03T15:54:14;7.80;99.90
13652;DHT22;6899;51.546;6.912;2023-02-03T15:57:19;7.70;99.90
13652;DHT22;6899;51.546;6.912;2023-02-03T15:59:56;7.80;99.90
13652;DHT22;6899;51.546;6.912;2023-02-03T16:02:29;7.80;99.90
13652;DHT22;6899;51.546;6.912;2023-02-03T16:05:29;7.80;99.90
13652;DHT22;6899;51.546;6.912;2023-02-03T16:08:02;7.70;99.90
13652;DHT22;6899;51.546;6.912;2023-02-03T16:11:00;7.70;99.90
13652;DHT22;6899;51.546;6.912;2023-02-03T16:13:42;7.70;99.90
13652;DHT22;6899;51.546;6.912;2023-02-03T16:16:15;7.60;99.90
13652;DHT22;6899;51.546;6.912;2023-02-03T16:18:52;7.60;99.90
13652;DHT22;6899;51.546;6.912;2023-02-03T16:21:33;7.60;99.90
13652;DHT22;6899;51.546;6.912;2023-02-03T16:24:03;7.60;99.90
13652;DHT22;6899;51.546;6.912;2023-02-03T16:26:32;7.50;99.90
13652;DHT22;6899;51.546;6.912;2023-02-03T16:29:12;7.50;99.90
13652;DHT22;6899;51.546;6.912;2023-02-03T16:31:57;7.50;99.90
13652;DHT22;6899;51.546;6.912;2023-02-03T16:34:41;7.60;99.90
13652;DHT22;6899;51.546;6.912;2023-02-03T16:37:29;7.50;99.90
13652;DHT22;6899;51.546;6.912;2023-02-03T16:40:17;7.50;99.90
13652;DHT22;6899;51.546;6.912;2023-02-03T16:43:04;7.50;99.90
13652;DHT22;6899;51.546;6.912;2023-02-03T16:45:56;7.50;99.90
13652;DHT22;6899;51.546;6.912;2023-02-03T16:48:41;7.50;99.90
13652;DHT22;6899;51.546;6.912;2023-02-03T16:51:36;7.40;99.90
13652;DHT22;6899;51.546;6.912;2023-02-03T16:54:10;7.40;99.90
13652;DHT22;6899;51.546;6.912;2023-02-03T16:56:39;7.40;99.90
13652;DHT22;6899;51.546;6.912;2023-02-03T16:59:06;7.40;99.90
13652;DHT22;6899;51.546;6.912;2023-02-03T17:01:34;7.40;99.90
13652;DHT22;6899;51.546;6.912;2023-02-03T17:04:06;7.50;99.90